Moapa Valley, Nevada Weather observations

Data are for 10 minute period ending at time listed.
 Day   Time   Solar   Ave.   Ave.  Ave.  Vector  Max.   Baro.   Total    
  of    of     Rad.   Air    Rel.  Wind   Wind   Wind  Press.  Precip.   
Year   Day            Temp.  Hum.  Speed  Dir.   Gust                    
2015   (PST)  Kw/m2    F      %     mph   deg.    mph    mb.     in.     
-------------------------------------------------------------------------
 144    5:20   0.14   65.0    76    0.3    26     1.7   964.3    0.00 
 144    5:30   0.21   69.0    65    0.2    31     1.3   964.3    0.00 
 144    5:40   0.16   69.5    64    1.6   201     2.8   964.5    0.00 
 144    5:50   0.14   67.9    71    1.0   164     2.4   964.5    0.00 
 144    6:00   0.14   68.1    67    1.7   154     2.4   964.5    0.00 
 144    6:10   0.19   69.0    63    1.6   177     2.8   964.6    0.00 
 144    6:20   0.15   69.2    61    1.2   235     2.4   964.7    0.00 
 144    6:30   0.18   69.6    58    0.5   227     1.7   964.7    0.00 
 144    6:40   0.22   70.2    57    0.3   168     1.3   964.8    0.00 
 144    6:50   0.53   71.4    55    2.1   106     3.5   964.8    0.00 
 144    7:00   0.27   71.3    52    1.9   131     3.5   964.9    0.00 
 144    7:10   0.25   71.6    54    0.5   104     2.1   965.1    0.00 
 144    7:20   0.27   71.4    55    0.9   107     1.7   965.0    0.00 
 144    7:30   0.28   71.5    54    0.7   109     1.7   965.0    0.00 
 144    7:40   0.27   71.9    54    1.5    85     4.2   965.1    0.00 
 144    7:50   0.28   71.5    56    3.2   122     6.0   965.2    0.00 
 144    8:00   0.35   71.6    53    4.7   144     7.4   965.2    0.00 
 144    8:10   0.40   72.2    53    5.1   139     8.1   965.2    0.00 
 144    8:20   0.50   72.4    53    6.3   124     8.8   965.1    0.00 
 144    8:30   0.88   73.8    51    7.0   107     9.6   965.1    0.00 
 144    8:40   0.88   74.8    48    5.1   140     9.2   965.0    0.00 
 144    8:50   0.90   75.0    47    5.5   120     9.2   965.0    0.00 
 144    9:00   0.93   75.7    46    4.6   128    16.0   965.0    0.00 
 144    9:10   0.95   76.2    45    4.6   131     8.8   965.0    0.00 
 144    9:20   0.64   76.0    45    4.8   130     8.1   964.9    0.00 
 144    9:30   1.01   76.8    43    7.2   139    11.7   964.9    0.00 
 144    9:40   1.03   77.0    42    7.2   111    11.7   964.8    0.00 
 144    9:50   1.05   77.5    40    6.2   151    12.8   964.8    0.00 
 144   10:00   1.09   78.0    39    7.2   127    12.8   964.7    0.00 
 144   10:10   1.12   77.8    39    7.7   114    13.8   964.7    0.00 
 144   10:20   1.16   78.3    39    8.0   114    13.1   964.6    0.00 
 144   10:30   1.16   78.5    38    8.6   116    12.4   964.5    0.00 
 144   10:40   1.21   79.2    38    8.0   123    11.3   964.5    0.00 
 144   10:50   1.23   79.2    38    8.0   106    12.4   964.4    0.00 
 144   11:00   1.21   79.5    37    7.3   104    12.8   964.2    0.00 
 144   11:10   1.19   79.5    36    9.3   114    15.3   964.1    0.00 
 144   11:20   1.21   79.8    36    8.4   120    12.4   964.0    0.00 
 144   11:30   100.00   80.0    36    8.4   123    13.8   963.9    0.00 
 144   11:40   1.23   80.5    35    6.9   126    12.4   963.8    0.00 
 144   11:50   100.00   80.5    34    6.7   114    13.8   963.6    0.00 
 144   12:00   100.00   80.8    34    8.2   114    12.1   963.5    0.00 
 144   12:10   100.00   80.3    34    7.8   116    14.9   963.3    0.00 
 144   12:20   1.25   81.2    33    8.9   136    14.2   963.2    0.00 
 144   12:30   0.76   80.6    34    7.2   122    13.1   963.0    0.00 
 144   12:40   1.08   81.3    33    7.1   134    12.4   962.8    0.00 
 144   12:50   1.06   81.8    33    7.3   149    13.8   962.6    0.00 
 144   13:00   1.12   82.4    32    6.4   141    13.5   962.5    0.00 
 144   13:10   1.02   82.3    32    5.5   144    10.3   962.4    0.00 
 144   13:20   0.94   82.0    32    7.9   141    13.8   962.3    0.00 
 144   13:30   1.07   82.7    32    7.7   136    12.8   962.1    0.00 
 144   13:40   1.03   83.4    31    8.0   152    12.4   961.9    0.00 
 144   13:50   0.81   82.7    31    7.5   158    13.1   961.7    0.00 
 144   14:00   0.97   83.5    29    8.8   133    13.5   961.5    0.00 
 144   14:10   0.98   83.7    29    8.5   133    14.2   961.3    0.00 
 144   14:20   0.96   83.9    29    8.2   133    14.9   961.1    0.00 
 144   14:30   0.95   83.9    28    8.8   124    14.2   960.9    0.00 
 144   14:40   0.91   84.3    28    9.8   130    14.6   960.8    0.00 
 144   14:50   0.89   84.7    26    5.3   182    10.6   960.8    0.00 
 144   15:00   0.92   85.4    26    5.1   186     8.8   960.8    0.00 
 144   15:10   0.85   86.2    26    3.1   140     9.2   960.7    0.00 
 144   15:20   0.33   84.2    27    4.5   148     7.8   960.7    0.00 
 144   15:30   0.24   83.5    27    4.9   199     8.5   960.7    0.00 
 144   15:40   0.19   82.5    30    4.3   154     8.5   960.7    0.00 
 144   15:50   0.23   82.5    29    5.9   102     9.6   960.7    0.00 
 144   16:00   0.14   79.4    37   11.4    60    19.6   961.1    0.00 
 144   16:10   0.12   77.2    42   13.3    51    19.9   961.0    0.00 
 144   16:20   0.11   76.6    42   13.2    46    18.1   961.0    0.00 
 144   16:30   0.10   77.2    40   10.9    44    16.7   961.0    0.00 
 144   16:40   0.13   78.3    37    9.6    38    16.0   960.9    0.00 
 144   16:50   0.13   77.1    44   10.9    31    16.4   960.9    0.00 
 144   17:00   0.10   74.8    46   14.4    15    22.8   961.3    0.00 
 144   17:10   0.11   75.0    46   15.2    16    22.1   961.4    0.00 
 144   17:20   0.07   73.5    50   18.0    13    27.1   961.5    0.00 
 144   17:30   0.04   73.3    48   17.2    10    25.6   961.7    0.00 
 144   17:40   0.02   73.6    49   14.8    11    26.0   961.8    0.00 
 144   17:50   0.01   72.9    51   15.2     3    25.6   962.3    0.00 
 144   18:00   0.01   72.8    49   12.2   352    19.2   962.4    0.00 
 144   18:10   0.01   72.5    49   11.9    30    23.5   962.4    0.00 
 144   18:20   0.01   71.9    52   10.5    45    17.4   962.5    0.00 
 144   18:30   0.01   70.0    59    6.0   284    12.4   962.7    0.00 
 144   18:40   0.00   70.5    56    3.5   181     6.7   962.9    0.00 
 144   18:50   0.00   70.7    54    4.0   263     7.8   963.1    0.00 
 144   19:00   0.00   70.5    58    5.6   283     8.1   963.1    0.00 
 144   19:10   0.00   68.8    66    3.3   174     6.0   962.9    0.00 
 144   19:20   0.00   67.9    67    7.1   113     9.9   962.2    0.00 
 144   19:30   0.00   67.5    70    6.4   322    10.6   962.6    0.01 
 144   19:40   0.00   68.4    66    2.8   189     6.7   962.9    0.00 
 144   19:50   0.00   67.9    68    2.4   237     3.5   963.1    0.00 
 144   20:00   0.00   67.4    70    3.2   273     4.9   963.2    0.00 
 144   20:10   0.00   67.4    71    4.4   293     6.3   963.4    0.00 
 144   20:20   0.00   67.3    72    4.0   291     6.0   963.5    0.00 
 144   20:30   0.00   67.2    73    5.9   293     8.8   963.8    0.00 
 144   20:40   0.00   67.9    69    9.6   300    14.6   964.4    0.00 
 144   20:50   0.00   69.0    64    9.6   312    15.6   964.7    0.00 
 144   21:00   0.00   69.8    61   11.1   318    17.1   964.8    0.00 
 144   21:10   0.00   69.1    64   10.2   317    14.6   965.0    0.00 
 144   21:20   0.00   68.6    65    9.4   305    13.8   965.1    0.00 
 144   21:30   0.00   67.6    68    9.8   296    12.8   965.2    0.00 
 144   21:40   0.00   66.6    72    6.4   303    12.1   965.1    0.00 
 144   21:50   0.00   65.8    75    5.8   283     8.5   965.3    0.00 
 144   22:00   0.00   65.1    76    5.9   262     9.6   965.5    0.00 
 144   22:10   0.00   65.5    73    1.7   265     6.3   966.2    0.00 
 144   22:20   0.00   65.2    75    2.1   118     3.5   966.5    0.01 
 144   22:30   0.00   65.0    78    2.9    13     4.6   966.6    0.00 
 144   22:40   0.00   65.1    79    4.9    10     6.7   966.5    0.00 
 144   22:50   0.00   64.6    80    4.8   347     7.1   966.5    0.00 
 144   23:00   0.00   64.1    82    3.3   342     5.3   966.4    0.00 
 144   23:10   0.00   63.6    83    2.5   305     3.5   966.3    0.00 
 144   23:20   0.00   63.1    84    1.4   269     3.1   966.0    0.00 
 144   23:30   0.00   62.9    85    1.0   328     2.4   965.9    0.00 
 144   23:40   0.00   63.0    84    2.0   277     3.1   965.9    0.00 
 144   23:50   0.00   62.3    86    2.3   243     3.1   965.8    0.00 
 145    0:00   0.00   62.0    87    3.0   230     4.2   965.8    0.00 
 145    0:10   0.00   62.7    84    1.7   264     2.8   965.7    0.00 
 145    0:20   0.00   62.0    87    2.8   116     7.1   965.6    0.00 
 145    0:30   0.00   61.0    92    3.3   103     6.3   965.6    0.00 
 145    0:40   0.00   60.9    93    1.8    58     2.8   965.6    0.00 
 145    0:50   0.00   60.9    93    1.5    61     2.4   965.4    0.00 
 145    1:00   0.00   60.6    93    1.8   353     2.4   965.5    0.00 
 145    1:10   0.00   60.3    94    0.9    46     2.1   965.5    0.00 
 145    1:20   0.00   59.6    94    0.9   269     3.1   965.5    0.00 
 145    1:30   0.00   59.1    95    3.1   252     4.6   965.5    0.00 
 145    1:40   0.00   58.9    96    2.4   247     2.8   965.4    0.00 
 145    1:50   0.00   58.6    96    2.5   278     3.5   965.4    0.00 
 145    2:00   0.00   58.3    96    0.9   281     3.1   965.4    0.00 
 145    2:10   0.00   57.8    96    0.0     0     0.0   965.4    0.00 
 145    2:20   0.00   57.9    97    0.5    19     2.1   965.4    0.00 
 145    2:30   0.00   58.0    97    1.6   357     2.1   965.4    0.00 
 145    2:40   0.00   57.5    97    1.9   347     3.1   965.5    0.00 
 145    2:50   0.00   58.1    98    1.7     7     3.5   965.6    0.00 
 145    3:00   0.00   58.5    97    2.2     6     2.8   965.5    0.00 
 145    3:10   0.00   58.2    96    2.3   334     3.1   965.6    0.00 
 145    3:20   0.00   58.1    96    1.4   302     2.4   965.6    0.00 
 145    3:30   0.00   57.8    96    2.5   257     3.5   965.6    0.00 
 145    3:40   0.00   57.5    96    2.0   270     3.5   965.6    0.00 
 145    3:50   0.00   57.2    96    2.2   287     3.1   965.6    0.00 
 145    4:00   0.00   57.2    96    2.8   262     3.8   965.7    0.00 
 145    4:10   0.00   57.4    96    3.0   297     4.2   965.8    0.00 
 145    4:20   0.00   57.1    95    1.3    15     2.8   965.8    0.00 
 145    4:30   0.00   56.5    96    0.3   234     1.3   965.9    0.00 
 145    4:40   0.01   56.3    96    0.7    40     1.7   966.0    0.00 
 145    4:50   0.02   56.0    96    0.1   159     1.3   966.0    0.00 
 145    5:00   0.06   57.1    97    0.7   268     2.8   966.1    0.00 
 145    5:10   0.09   58.4    95    2.0   285     2.8   966.1    0.00 

Return to Moapa Valley graphs page.


Western Regional Climate Center,wrcc@dri.edu